Livingston, California
Current Conditions -  °F | °C
As of 4:45 PM on Tuesday 21 Oct 2014 (Local Time) from KMER Reporting Station
Clear Clear  
Wind Chill: 72°   Ceiling: Unl
Heat Index: 72°   Visibility: 10mi
Dew Point: 43°   Wind: 15mph
Humidity: 35%   Direction: 350°N
Pressure: 29.98"   Gusts: 26mph
Location:  37.38°N, 120.72°W
Report Text: KMER 212345Z 35013G23KT 10SM SKC 22/06 A2998
Loading
Personal Weather Stations






























Interactive Weather Map
Tropical Storm Tracking
New forecast layout! Learn more

10-Day Weather Forecast

Advertisements
Track Severe Weather on mobile